Flight Track Log - Related Links

Times and Time Zones

All times are in EDT time to prevent confusion due to time zone crossing. See the ASQ5182 flight status page for this flight to view local times or setup timezone preferences in your user account.

Time Position Orientation Groundspeed Altitude Reporting Facility
EDT Latitude Longitude Course Direction KTS MPH feet Rate Location/Type
Fri 01:22:30 PM 33.6500 -84.3667 59° Northeast 171 197 2,600  Level Atlanta TRACON
Fri 01:23:30 PM 33.6833 -84.3000 59° Northeast 240 276 5,100 2,500 Climbing Atlanta TRACON
Fri 01:24:30 PM 33.7500 -84.2833 12° North 295 339 7,600 1,930 Climbing Atlanta TRACON
Fri 01:26:49 PM 33.8122 -84.4914 290° West 298 343 11,500 2,131 Climbing Atlanta Center
Fri 01:28:49 PM 33.8111 -84.7314 270° West 356 410 16,800 2,067 Climbing Atlanta Center
Fri 01:29:49 PM 33.8083 -84.8414 268° West 344 396 17,700 900 Climbing Atlanta Center
Fri 01:30:49 PM 33.8181 -84.9564 276° West 369 425 18,600 950 Climbing Atlanta Center
Fri 01:31:49 PM 33.8378 -85.0792 281° West 374 430 19,600 1,000 Climbing Atlanta Center
Fri 01:32:49 PM 33.8556 -85.2169 279° West 374 430 20,600 1,000 Climbing Atlanta Center
Fri 01:33:49 PM 33.8750 -85.3422 281° West 384 442 21,600 800 Climbing Atlanta Center
Fri 01:34:49 PM 33.8944 -85.4778 280° West 394 453 22,200 550 Climbing Atlanta Center
Fri 01:35:49 PM 33.9136 -85.6108 280° West 401 461 22,700 500 Climbing Atlanta Center
Fri 01:36:49 PM 33.9328 -85.7464 280° West 414 476 23,200 450 Climbing Atlanta Center
Fri 01:37:49 PM 33.9478 -85.8644 279° West 414 476 23,600 450 Climbing Atlanta Center
Fri 01:38:49 PM 33.9642 -86.0075 278° West 409 471 24,100 2,200 Climbing Atlanta Center
Fri 01:39:49 PM 33.9956 -86.1433 286° West 420 483 28,000 500 Climbing Atlanta Center
Fri 01:40:49 PM 34.0328 -86.2822 288° West 425 489 25,100 -1,200 Descending Atlanta Center
Fri 01:41:49 PM 34.0717 -86.4211 289° West 435 501 25,600 543 Climbing Atlanta Center
Fri 01:44:08 PM 34.1619 -86.7450 289° West 428 493 26,900 543 Climbing Memphis Center
Fri 01:45:08 PM 34.2014 -86.8839 289° West 433 498 27,400 500 Climbing Memphis Center
Fri 01:46:08 PM 34.2453 -87.0431 288° West 454 522 27,900 300 Climbing Memphis Center
Fri 01:47:08 PM 34.2822 -87.1772 288° West 448 516 28,000 50 Climbing Memphis Center
Fri 01:48:08 PM 34.3211 -87.3192 288° West 435 501 28,000  Level Memphis Center
Fri 01:49:00 PM 34.3440 -87.4104 288° West  Level FlightAware Approximate
Fri 01:49:08 PM 34.3622 -87.4611 289° West 441 507 28,000  Level Memphis Center
Fri 01:50:08 PM 34.4008 -87.6033 288° West 448 516 28,000  Level Memphis Center
Fri 01:51:08 PM 34.4394 -87.7456 288° West 448 516 28,000 300 Level Memphis Center
Fri 01:52:08 PM 34.4778 -87.8906 288° West 448 516 28,600 600 Climbing Memphis Center
Fri 01:53:08 PM 34.5136 -88.0131 290° West 442 509 29,200 550 Climbing Memphis Center
Fri 01:54:08 PM 34.5475 -88.1533 286° West 434 499 29,700 400 Climbing Memphis Center
Fri 01:55:08 PM 34.5878 -88.3136 287° West 449 517 30,000 150 Climbing Memphis Center
Fri 01:56:08 PM 34.6256 -88.4567 288° West 449 517 30,000  Level Memphis Center
Fri 01:57:08 PM 34.6586 -88.5822 288° West 443 510 30,000  Level Memphis Center
Fri 01:58:08 PM 34.6961 -88.7303 287° West 443 510 30,000  Level Memphis Center
Fri 01:59:08 PM 34.7356 -88.8736 289° West 450 518 30,000  Level Memphis Center
Fri 02:00:08 PM 34.7769 -89.0347 287° West 450 518 30,000  Level Memphis Center
Fri 02:01:08 PM 34.8139 -89.1833 287° West 455 524 30,000  Level Memphis Center
Fri 02:02:08 PM 34.8528 -89.3272 288° West 455 524 30,000  Level Memphis Center
Fri 02:03:08 PM 34.8894 -89.4736 287° West 455 524 30,000  Level Memphis Center
Fri 02:04:08 PM 34.9300 -89.6225 288° West 455 524 30,000  Level Memphis Center
Fri 02:05:08 PM 34.9725 -89.7742 289° West 466 536 30,000  Level Memphis Center
Fri 02:06:08 PM 35.0044 -89.9261 284° West 472 543 30,000  Level Memphis Center
Fri 02:07:08 PM 35.0444 -90.0731 288° West 472 543 30,000  Level Memphis Center
Fri 02:08:08 PM 35.0908 -90.2200 291° West 467 537 30,000  Level Memphis Center
Fri 02:09:08 PM 35.1389 -90.3722 291° West 467 537 30,000  Level Memphis Center
Fri 02:10:08 PM 35.1844 -90.5197 291° West 473 544 30,000  Level Memphis Center
Fri 02:11:08 PM 35.2344 -90.6747 292° West 473 544 30,000  Level Memphis Center
Fri 02:12:08 PM 35.2797 -90.8275 290° West 473 544 30,000  Level Memphis Center
Fri 02:13:08 PM 35.3314 -90.9806 293° West 478 550 30,000  Level Memphis Center
Fri 02:14:08 PM 35.3700 -91.1183 289° West 483 556 30,000  Level Memphis Center
Fri 02:15:08 PM 35.4253 -91.2894 292° West 491 565 30,000  Level Memphis Center
Fri 02:16:08 PM 35.4700 -91.4278 292° West 491 565 30,000  Level Memphis Center
Fri 02:17:08 PM 35.5144 -91.5864 289° West 491 565 30,000  Level Memphis Center
Fri 02:18:08 PM 35.5631 -91.7403 291° West 491 565 30,000  Level Memphis Center
Fri 02:19:08 PM 35.6069 -91.8994 289° West 491 565 30,000  Level Memphis Center
Fri 02:20:08 PM 35.6550 -92.0586 290° West 491 565 30,000  Level Memphis Center
Fri 02:21:08 PM 35.7028 -92.2206 290° West 496 571 30,000  Level Memphis Center
Fri 02:22:08 PM 35.7522 -92.3803 291° West 496 571 30,000  Level Memphis Center
Fri 02:23:08 PM 35.7956 -92.5428 288° West 496 571 30,000 -1,200 Level Memphis Center
Fri 02:24:08 PM 35.8447 -92.7078 290° West 509 586 27,600 -2,450 Descending Memphis Center
Fri 02:25:08 PM 35.8914 -92.8706 290° West 509 586 25,100 -1,800 Descending Memphis Center
Fri 02:26:08 PM 35.9361 -93.0258 290° West 498 573 24,000 -850 Descending Memphis Center
Fri 02:27:08 PM 35.9808 -93.1761 290° West 485 558 23,400 -2,100 Descending Memphis Center
Fri 02:28:08 PM 36.0250 -93.3417 288° West 472 543 19,800 -3,250 Descending Memphis Center
Fri 02:29:08 PM 36.0694 -93.4819 291° West 465 535 16,900 -2,650 Descending Memphis Center
Fri 02:30:08 PM 36.0828 -93.6111 277° West 410 472 14,500 -2,350 Descending Memphis Center
Fri 02:31:08 PM 36.0842 -93.7214 271° West 369 425 12,200 -2,150 Descending Memphis Center
Fri 02:32:08 PM 36.0792 -93.8214 266° West 321 369 10,200 -2,100 Descending Memphis Center
Fri 02:33:08 PM 36.0703 -93.9161 263° West 295 339 8,000 -2,350 Descending Memphis Center
Fri 02:34:08 PM 36.0681 -94.0008 268° West 270 311 5,500 -2,000 Descending Memphis Center
Fri 02:35:08 PM 36.0719 -94.0781 274° West 258 297 4,000 -750 Descending Memphis Center
Fri 02:36:08 PM 36.0697 -94.1497 268° West 239 275 4,000  Level Memphis Center
Fri 02:37:08 PM 36.0719 -94.2114 273° West 203 234 4,000 -250 Level Memphis Center
Fri 02:38:08 PM 36.1131 -94.2364 334° Northwest 161 185 3,500 -550 Descending Memphis Center
Fri 02:39:08 PM 36.1581 -94.2567 340° North 150 173 2,900 -250 Descending Memphis Center
Fri 02:40:08 PM 36.1953 -94.2714 342° North 150 173 3,000 -350 Climbing Memphis Center
Fri 02:41:08 PM 36.2322 -94.2883 340° North 145 167 2,200 -550 Descending Memphis Center
Fri 02:42:08 PM 36.2714 -94.3058 340° North 145 167 1,900 -300 Descending Memphis Center
Fri 02:44:00 PM 36.2816 -94.3078 351° North  Level Estimated
Fri 02:51:00 PM 36.2816 -94.3078 102° East  Level Estimated

Login

Don't have an account? Register now (free) for customized features, flight alerts, and more!